Almond, New York
Current Conditions -  °F | °C
As of 9:54 PM on Saturday 25 Oct 2014 (Local Time) from KDSV Reporting Station
Few Clouds Few Clouds  
Wind Chill: 51°   Ceiling: Unl
Heat Index: 51°   Visibility: 10mi
Dew Point: 45°   Wind: 3mph
Humidity: 80%   Direction: 140°SE
Pressure: 29.62"   Gusts: NA
Location:  42.32°N, 77.74°W
Report Text: KDSV 260154Z AUTO 14003KT 10SM FEW070 11/07 A2962 RMK AO2 SLP039 T01060072
Loading
Personal Weather Stations






























Interactive Weather Map New forecast layout! Learn more

10-Day Weather Forecast

Advertisements
Track Severe Weather on mobile